Gretna, South Dakota
Current Conditions -  °F | °C
As of 9:53 AM on Thursday 30 Oct 2014 (Local Time) from KABR Reporting Station
Haze Haze  
Wind Chill: 30°   Ceiling: 500
Heat Index: 39°   Visibility: 6mi
Dew Point: 37°   Wind: 17mph
Humidity: 93%   Direction: 350°N
Pressure: 30.17"   Gusts: 25mph
Location:  45.4011°N, 99.3273°W
Report Text: KABR 301453Z AUTO 35015G22KT 6SM BR OVC005 04/03 A3017 RMK AO2 PK WND 35027/1415 SLP224 T00390028 53037
Loading
Personal Weather Stations






























Interactive Weather Map
Tropical Storm Tracking
New forecast layout! Learn more

10-Day Weather Forecast

Advertisements
Track Severe Weather on mobile